Current Conditions

Updated: 19-Mar-2019 6:42 PM  
Summary / Temperature Wind Rain






Feels like: 77°F

1-hour difference
1.4°F 1.4°F colder than last hour.

24-hour difference
6.2°F6.2°F colder than yesterday at this time.

  Today Yesterday
High: 76.9°F
3:09 PM
80.4°F
4:17 PM
Low: 50.4°F
5:21 AM
45.1°F
6:19 AM
Calm WNW
0.0
Gust:  0.0 mph
0 Beaufort - Calm

Today: 5.0 - 12:09 PM
Month: 20.0 mph - Mar 12
Rain Today: 0.00 in
Current Rate (/hr): 0.000 in
Max Rate (/hr):
Rain Yesterday: 0.00 in
Storm Rain: 0.00 in
This Month: 2.28 in
Season Total: 9.76 in
Last Rain Event: 9 days ago
Humidity / Barometer Sun / Moon
Humidity: 48 Increased 3.0% in the last hour.
Dew Point: 50.0°F Increased 0.5°F in the last hour.
Barometer: 29.756 inHg  
Baro Trend: Steady
Sunrise: 7:00 AM
Sunset: 7:07 PM
Moonrise: 5:53 PM
Moonset: 7:05 AM
Sky Conditions UV Index
Summary: Mostly clear
Visibility: 10 miles
Clouds: A few clouds @ 11,000 ft
KVIS - 5:56 PM PDT
Current: 1.0  Low 
Tuesday: 5.9  Moderate 
Wednesday: 5.2  Moderate 
Air Quality Fire Danger
 Good 
Ozone 51 ppb
6:40 PM PDT
Current: 22  Low 

Local Alerts Local Forecast
Local NWS Alerts
Tonight

Rain
Showers
Low 50
Wed

Rain
Showers
High 66
Wed night

Rain
Showers
Low 47
Thu

Rain
Showers
High 63
Thu night

Mostly
Clear
Low 44
Fri

Partly
Cloudy
High 67
Fri night

Rain
Showers
Low 49

Local Radar Local Satellite Neighborhood Cam Sky Cam
Local Radar Local Satellite Neighborhood Cam Sky Cam


Nearby Airport Stations

KVIS - Visalia, California, USA
Distance from station: W 14mi, 23km
Updated: Tue, 19-Mar-2019 5:56pm PDT
Few Clouds
Few Clouds
 Wind from calm
Wind: Calm
Temperature: 72°F , 22°C
Dew Point: 46°F , 8°C
Humidity: 41%
Barometer: 29.79 inHg , 1008.8 hPa
Clouds: Few Clouds
Visibility: 10 miles , 16 km
Cloud details: Few Clouds 11000 ft
2019/03/20 00:56 KVIS 200056Z AUTO 00000KT 10SM FEW110 22/08 A2979 RMK AO2 SLP094 T02220078
KPTV - Porterville, California, USA
Distance from station: SSE 19mi, 31km
Updated: Tue, 19-Mar-2019 5:56pm PDT
Few Clouds
Few Clouds
 Wind from W
Wind: W 3 mph , 6 km/h
Temperature: 68°F , 20°C
Dew Point: 54°F , 12°C
Humidity: 60%
Barometer: 29.80 inHg , 1009.1 hPa
Clouds: Few Clouds
Visibility: 10 miles , 16 km
Cloud details: Few Clouds 11000 ft
2019/03/20 00:56 KPTV 200056Z AUTO 27003KT 10SM FEW110 20/12 A2980 RMK AO2 SLP103 T02000122

Metar display script from Saratoga-Weather.org



Visitor Map